createdAt,value
2022-11-22T00:02:48.548Z,5.44
2022-11-22T00:05:50.017Z,5.43
2022-11-22T00:08:51.436Z,5.37
2022-11-22T00:11:52.839Z,5.28
2022-11-22T00:14:57.003Z,5.26
2022-11-22T00:17:58.663Z,5.20
2022-11-22T00:21:06.046Z,5.14
2022-11-22T00:24:07.512Z,5.10
2022-11-22T00:27:08.951Z,4.96
2022-11-22T00:30:10.732Z,4.90
2022-11-22T00:33:12.208Z,4.81
2022-11-22T00:36:14.066Z,4.71
2022-11-22T00:39:15.517Z,4.73
2022-11-22T00:42:17.985Z,4.66
2022-11-22T00:45:19.425Z,4.59
2022-11-22T00:48:20.940Z,4.61
2022-11-22T00:51:22.388Z,4.69
2022-11-22T00:54:23.767Z,4.72
2022-11-22T00:57:25.206Z,4.79
2022-11-22T01:00:26.687Z,4.85
2022-11-22T01:03:28.203Z,4.95
2022-11-22T01:06:29.642Z,4.98
2022-11-22T01:09:31.507Z,5.02
2022-11-22T01:12:33.200Z,4.99
2022-11-22T01:15:35.709Z,4.81
2022-11-22T01:18:37.509Z,4.80
2022-11-22T01:21:39.210Z,4.72
2022-11-22T01:24:40.643Z,4.66
2022-11-22T01:27:42.157Z,4.75
2022-11-22T01:30:43.717Z,4.65
2022-11-22T01:33:45.162Z,4.76
2022-11-22T01:36:46.586Z,4.81
2022-11-22T01:39:47.972Z,4.76
2022-11-22T01:42:56.016Z,4.79
2022-11-22T01:46:01.671Z,4.72
2022-11-22T01:49:10.806Z,4.64
2022-11-22T01:52:17.520Z,4.57
2022-11-22T01:55:19.221Z,4.52
2022-11-22T01:58:22.171Z,4.53
2022-11-22T02:01:23.749Z,4.46
2022-11-22T02:04:27.448Z,4.36
2022-11-22T02:07:51.140Z,4.41
2022-11-22T02:10:55.433Z,4.40
2022-11-22T02:13:57.147Z,4.44
2022-11-22T02:16:58.616Z,4.38
2022-11-22T02:20:00.087Z,4.40
2022-11-22T02:23:23.676Z,4.23
2022-11-22T02:26:27.752Z,4.19
2022-11-22T02:29:31.755Z,4.16
2022-11-22T02:32:33.435Z,4.13
2022-11-22T02:35:34.905Z,4.09
2022-11-22T02:38:36.504Z,3.95
2022-11-22T02:41:38.225Z,3.96
2022-11-22T02:44:41.657Z,3.91
2022-11-22T02:47:43.227Z,3.88
2022-11-22T02:50:45.412Z,3.86
2022-11-22T02:53:48.708Z,3.76
2022-11-22T02:56:50.218Z,3.77
2022-11-22T02:59:51.656Z,3.78
2022-11-22T03:02:53.124Z,3.84
2022-11-22T03:05:54.522Z,3.78
2022-11-22T03:08:56.695Z,3.82
2022-11-22T03:11:58.524Z,3.74
2022-11-22T03:14:59.972Z,3.67
2022-11-22T03:18:03.175Z,3.64
2022-11-22T03:21:06.550Z,3.79
2022-11-22T03:24:08.723Z,3.82
2022-11-22T03:27:10.171Z,3.82
2022-11-22T03:30:12.007Z,3.86
2022-11-22T03:33:13.595Z,3.85
2022-11-22T03:36:15.020Z,3.87
2022-11-22T03:39:16.629Z,3.88
2022-11-22T03:42:21.642Z,3.80
2022-11-22T03:45:23.584Z,3.75
2022-11-22T03:48:25.051Z,3.66
2022-11-22T03:51:27.248Z,3.58
2022-11-22T03:54:28.695Z,3.54
2022-11-22T03:57:30.128Z,3.54
2022-11-22T04:00:32.055Z,3.65
2022-11-22T04:03:33.529Z,3.57
2022-11-22T04:06:35.001Z,3.53
2022-11-22T04:09:36.472Z,3.47
2022-11-22T04:12:37.986Z,3.33
2022-11-22T04:15:39.369Z,3.32
2022-11-22T04:18:40.792Z,3.21
2022-11-22T04:21:42.233Z,3.21
2022-11-22T04:24:43.691Z,3.07
2022-11-22T04:27:45.079Z,2.94
2022-11-22T04:30:46.608Z,2.91
2022-11-22T04:33:48.057Z,2.84
2022-11-22T04:36:49.459Z,2.83
2022-11-22T04:39:50.856Z,2.78
2022-11-22T04:42:52.308Z,2.82
2022-11-22T04:45:53.851Z,2.87
2022-11-22T04:48:55.329Z,2.81
2022-11-22T04:51:56.761Z,2.87
2022-11-22T04:54:58.219Z,2.89
2022-11-22T04:58:00.510Z,2.93
2022-11-22T05:01:02.430Z,2.88
2022-11-22T05:04:04.004Z,2.91
2022-11-22T05:07:05.430Z,2.80
2022-11-22T05:10:07.364Z,2.82
2022-11-22T05:13:08.766Z,2.95
2022-11-22T05:16:12.871Z,3.11
2022-11-22T05:19:14.371Z,3.28
2022-11-22T05:22:16.247Z,3.32
2022-11-22T05:25:21.382Z,3.37
2022-11-22T05:28:34.306Z,3.41
2022-11-22T05:31:37.336Z,3.43
2022-11-22T05:34:38.733Z,3.46
2022-11-22T05:37:40.201Z,3.50
2022-11-22T05:40:41.685Z,3.52
2022-11-22T05:43:43.189Z,3.54
2022-11-22T05:46:44.617Z,3.56
2022-11-22T05:49:46.074Z,3.59
2022-11-22T05:52:47.584Z,3.62
2022-11-22T05:55:48.983Z,3.63
2022-11-22T05:58:51.295Z,3.63
2022-11-22T06:01:52.832Z,3.63
2022-11-22T06:04:54.267Z,3.64
2022-11-22T06:08:00.202Z,3.64
2022-11-22T06:11:22.887Z,3.65
2022-11-22T06:14:24.291Z,3.56
2022-11-22T06:17:25.823Z,3.54
2022-11-22T06:20:27.316Z,3.56
2022-11-22T06:23:29.367Z,3.60
2022-11-22T06:26:39.029Z,3.64
2022-11-22T06:29:41.370Z,3.64
2022-11-22T06:32:43.067Z,3.61
2022-11-22T06:35:44.878Z,3.58
2022-11-22T06:38:50.047Z,3.57
2022-11-22T06:41:52.037Z,3.58
2022-11-22T06:44:53.501Z,3.56
2022-11-22T06:48:00.904Z,3.50
2022-11-22T06:51:09.642Z,3.35
2022-11-22T06:54:20.426Z,3.31
2022-11-22T06:57:22.528Z,3.31
2022-11-22T07:00:23.952Z,3.38
2022-11-22T07:03:26.157Z,3.42
2022-11-22T07:06:33.932Z,3.44
2022-11-22T07:09:35.340Z,3.50
2022-11-22T07:12:36.744Z,3.52
2022-11-22T07:15:38.240Z,3.54
2022-11-22T07:18:40.406Z,3.54
2022-11-22T07:21:42.073Z,3.57
2022-11-22T07:24:47.161Z,3.60
2022-11-22T07:27:51.466Z,3.64
2022-11-22T07:30:53.537Z,3.65
2022-11-22T07:33:58.123Z,3.65
2022-11-22T07:37:03.579Z,3.72
2022-11-22T07:40:08.312Z,3.75
2022-11-22T07:43:13.474Z,3.77
2022-11-22T07:46:32.300Z,3.82
2022-11-22T07:49:36.604Z,3.85
2022-11-22T07:52:38.140Z,3.92
2022-11-22T07:55:45.497Z,3.96
2022-11-22T07:58:47.683Z,4.03
2022-11-22T08:01:49.363Z,4.06
2022-11-22T08:04:50.924Z,4.05
2022-11-22T08:07:53.815Z,4.12
2022-11-22T08:10:55.428Z,4.16
2022-11-22T08:13:56.852Z,4.16
2022-11-22T08:16:58.311Z,4.20
2022-11-22T08:20:00.095Z,4.22
2022-11-22T08:23:01.821Z,4.23
2022-11-22T08:26:14.469Z,4.28
2022-11-22T08:29:16.291Z,4.32
2022-11-22T08:32:17.890Z,4.29
2022-11-22T08:35:19.393Z,4.33
2022-11-22T08:38:20.825Z,4.33
2022-11-22T08:41:22.992Z,4.32
2022-11-22T08:44:24.400Z,4.30
2022-11-22T08:47:26.291Z,4.32
2022-11-22T08:50:33.455Z,4.35
2022-11-22T08:53:37.124Z,4.36
2022-11-22T08:56:48.055Z,4.43
2022-11-22T08:59:49.464Z,4.44
2022-11-22T09:02:51.178Z,4.45
2022-11-22T09:09:36.426Z,4.50
2022-11-22T09:12:36.264Z,4.53
2022-11-22T09:15:37.921Z,4.57
2022-11-22T09:18:40.689Z,4.56
2022-11-22T09:21:42.469Z,4.57
2022-11-22T09:24:44.179Z,4.63
2022-11-22T09:27:45.955Z,4.68
2022-11-22T09:30:47.339Z,4.71
2022-11-22T09:33:53.017Z,4.70
2022-11-22T09:36:54.932Z,4.72
2022-11-22T09:39:56.377Z,4.80
2022-11-22T09:43:18.377Z,4.83
2022-11-22T09:46:58.537Z,4.85
2022-11-22T09:50:20.702Z,4.85
2022-11-22T09:53:48.483Z,4.91
2022-11-22T09:56:54.513Z,4.92
2022-11-22T10:00:07.969Z,4.93
2022-11-22T10:03:15.734Z,4.96
2022-11-22T10:06:25.489Z,5.00
2022-11-22T10:10:00.509Z,5.01
2022-11-22T10:13:05.434Z,4.95
2022-11-22T10:16:27.047Z,4.94
2022-11-22T10:19:53.468Z,4.96
2022-11-22T10:22:56.547Z,4.99
2022-11-22T10:26:02.789Z,5.03
2022-11-22T10:29:35.388Z,5.03
2022-11-22T10:33:13.076Z,5.03
2022-11-22T10:36:46.599Z,5.12
2022-11-22T10:39:57.774Z,5.14
2022-11-22T10:43:10.685Z,5.16
2022-11-22T10:46:24.154Z,5.14
2022-11-22T10:49:35.086Z,5.12
2022-11-22T10:53:22.597Z,5.07
2022-11-22T10:56:47.825Z,5.12
2022-11-22T11:00:13.802Z,5.14
2022-11-22T11:03:32.615Z,5.25
2022-11-22T11:07:18.477Z,5.22
2022-11-22T11:10:34.763Z,5.18
2022-11-22T11:13:44.642Z,5.19
2022-11-22T11:16:46.918Z,5.31
2022-11-22T11:19:50.241Z,5.42
2022-11-22T11:23:13.540Z,5.52
2022-11-22T11:26:30.738Z,5.65
2022-11-22T11:29:38.476Z,5.66
2022-11-22T11:32:52.852Z,5.67
2022-11-22T11:36:06.280Z,5.75
2022-11-22T11:39:19.812Z,5.74
2022-11-22T11:42:39.958Z,5.65
2022-11-22T11:45:41.471Z,5.57
2022-11-22T11:48:42.923Z,5.50
2022-11-22T11:51:50.142Z,5.41
2022-11-22T11:54:57.896Z,5.41
2022-11-22T11:58:03.227Z,5.41
2022-11-22T12:01:11.271Z,5.46
2022-11-22T12:04:20.686Z,5.51
2022-11-22T12:07:46.920Z,5.69
2022-11-22T12:10:59.861Z,5.87
2022-11-22T12:14:20.094Z,5.93
2022-11-22T12:17:28.997Z,5.95
2022-11-22T12:20:43.483Z,6.01
2022-11-22T12:23:50.947Z,6.03
2022-11-22T12:26:54.750Z,6.10
2022-11-22T12:29:58.116Z,6.02
2022-11-22T12:33:05.553Z,5.96
2022-11-22T12:36:15.363Z,5.95
2022-11-22T12:39:22.340Z,5.93
2022-11-22T12:42:34.669Z,5.97
2022-11-22T12:45:42.279Z,5.99
2022-11-22T12:48:55.952Z,5.94
2022-11-22T12:52:23.734Z,5.95
2022-11-22T12:55:27.957Z,5.97
2022-11-22T12:58:32.543Z,6.04
2022-11-22T13:01:37.400Z,6.04
2022-11-22T13:05:05.539Z,5.96
2022-11-22T13:08:38.331Z,6.02
2022-11-22T13:11:44.884Z,5.99
2022-11-22T13:14:54.032Z,6.03
2022-11-22T13:17:56.302Z,6.02
2022-11-22T13:21:05.294Z,6.03
2022-11-22T13:24:28.365Z,5.98
2022-11-22T13:27:51.447Z,5.98
2022-11-22T13:31:11.201Z,5.94
2022-11-22T13:34:26.630Z,5.99
2022-11-22T13:37:30.220Z,6.00
2022-11-22T13:40:39.028Z,6.01
2022-11-22T13:43:53.950Z,6.06
2022-11-22T13:47:00.548Z,6.03
2022-11-22T13:50:39.578Z,5.99
2022-11-22T13:53:43.720Z,5.99
2022-11-22T13:56:45.158Z,6.00
2022-11-22T13:59:47.158Z,6.03
2022-11-22T14:02:51.049Z,6.05
2022-11-22T14:05:57.384Z,6.10
2022-11-22T14:09:31.878Z,6.15
2022-11-22T14:13:12.571Z,6.20
2022-11-22T14:16:14.857Z,6.18
2022-11-22T14:19:53.838Z,6.21
2022-11-22T14:23:20.138Z,6.18
2022-11-22T14:26:28.154Z,6.09
2022-11-22T14:29:48.202Z,6.09
2022-11-22T14:33:06.016Z,6.06
2022-11-22T14:36:10.634Z,6.06
2022-11-22T14:39:44.363Z,6.08
2022-11-22T14:42:50.604Z,6.04
2022-11-22T14:45:56.724Z,6.05
2022-11-22T14:49:10.363Z,6.05
2022-11-22T14:52:21.186Z,6.03
2022-11-22T14:55:33.691Z,6.02
2022-11-22T14:58:40.307Z,5.98
2022-11-22T15:02:19.899Z,5.99
2022-11-22T15:09:19.459Z,5.96
2022-11-22T15:09:54.673Z,5.95
2022-11-22T15:13:44.116Z,5.97
2022-11-22T15:58:48.574Z,5.98
2022-11-22T16:01:52.176Z,6.01
2022-11-22T16:06:07.592Z,5.98
2022-11-22T16:08:21.114Z,6.00
2022-11-22T16:11:32.030Z,5.98
2022-11-22T16:14:47.553Z,5.99
2022-11-22T16:17:59.169Z,5.93
2022-11-22T16:21:21.898Z,5.92
2022-11-22T16:24:28.249Z,5.92
2022-11-22T16:27:29.779Z,5.87
2022-11-22T16:30:42.175Z,5.87
2022-11-22T16:33:44.555Z,5.92
2022-11-22T16:36:48.605Z,5.87
2022-11-22T16:39:50.229Z,5.80
2022-11-22T16:42:51.923Z,5.74
2022-11-22T16:45:57.050Z,5.71
2022-11-22T16:48:58.588Z,5.69
2022-11-22T16:52:00.132Z,5.67
2022-11-22T16:55:02.017Z,5.71
2022-11-22T16:58:30.335Z,5.71
2022-11-22T17:01:33.252Z,5.68
2022-11-22T17:04:40.726Z,5.66
2022-11-22T17:07:42.590Z,5.69
2022-11-22T17:10:49.329Z,5.69
2022-11-22T17:13:51.267Z,5.62
2022-11-22T17:16:53.140Z,5.47
2022-11-22T17:19:54.813Z,5.26
2022-11-22T17:22:56.574Z,5.15
2022-11-22T17:25:57.958Z,5.11
2022-11-22T17:28:59.414Z,5.12
2022-11-22T17:32:00.871Z,5.18
2022-11-22T17:35:02.538Z,5.18
2022-11-22T17:38:05.313Z,5.12
2022-11-22T17:41:06.830Z,5.11
2022-11-22T17:44:14.259Z,5.21
2022-11-22T17:47:15.639Z,5.28
2022-11-22T17:50:17.166Z,5.33
2022-11-22T17:53:18.673Z,5.41
2022-11-22T17:56:20.686Z,5.48
2022-11-22T17:59:22.140Z,5.53
2022-11-22T18:02:23.724Z,5.62
2022-11-22T18:05:25.261Z,5.65
2022-11-22T18:08:27.427Z,5.66
2022-11-22T18:11:28.845Z,5.71
2022-11-22T18:14:30.408Z,5.76
2022-11-22T18:17:32.672Z,5.82
2022-11-22T18:20:34.156Z,5.89
2022-11-22T18:23:37.645Z,5.94
2022-11-22T18:26:40.584Z,5.92
2022-11-22T18:29:43.284Z,5.93
2022-11-22T18:32:44.870Z,5.97
2022-11-22T18:35:56.069Z,5.98
2022-11-22T18:39:20.887Z,5.98
2022-11-22T18:42:20.697Z,5.99
2022-11-22T18:45:22.185Z,5.95
2022-11-22T18:48:23.632Z,5.86
2022-11-22T18:51:25.076Z,5.85
2022-11-22T18:54:26.544Z,5.89
2022-11-22T18:57:28.035Z,5.95
2022-11-22T19:00:29.523Z,5.93
2022-11-22T19:03:30.937Z,5.92
2022-11-22T19:06:32.454Z,5.90
2022-11-22T19:09:34.008Z,5.98
2022-11-22T19:12:35.521Z,6.01
2022-11-22T19:15:37.050Z,6.10
2022-11-22T19:18:42.745Z,6.13
2022-11-22T19:21:44.584Z,6.19
2022-11-22T19:24:47.331Z,6.23
2022-11-22T19:27:49.032Z,6.27
2022-11-22T19:30:50.466Z,6.27
2022-11-22T19:33:51.932Z,6.28
2022-11-22T19:36:56.284Z,6.28
2022-11-22T19:40:24.673Z,6.26
2022-11-22T19:43:26.080Z,6.22
2022-11-22T19:46:27.894Z,6.19
2022-11-22T19:49:29.648Z,6.17
2022-11-22T19:52:31.706Z,6.18
2022-11-22T19:55:34.367Z,6.18
2022-11-22T19:58:35.897Z,6.20
2022-11-22T20:01:38.101Z,6.20
2022-11-22T20:04:43.295Z,6.22
2022-11-22T20:07:45.062Z,6.21
2022-11-22T20:10:46.479Z,6.26
2022-11-22T20:13:50.108Z,6.30
2022-11-22T20:16:51.558Z,6.29
2022-11-22T20:19:53.063Z,6.29
2022-11-22T20:22:54.703Z,6.32
2022-11-22T20:26:10.156Z,6.31
2022-11-22T20:29:12.888Z,6.30
2022-11-22T20:32:14.323Z,6.30
2022-11-22T20:35:15.821Z,6.29
2022-11-22T20:38:17.325Z,6.31
2022-11-22T20:41:21.047Z,6.31
2022-11-22T20:44:26.010Z,6.32
2022-11-22T20:47:27.980Z,6.31
2022-11-22T20:50:29.448Z,6.33
2022-11-22T20:53:31.648Z,6.33
2022-11-22T20:56:33.282Z,6.33
2022-11-22T20:59:34.747Z,6.34
2022-11-22T21:02:36.163Z,6.33
2022-11-22T21:05:37.622Z,6.32
2022-11-22T21:08:39.406Z,6.31
2022-11-22T21:11:40.895Z,6.33
2022-11-22T21:14:42.381Z,6.34
2022-11-22T21:18:02.433Z,6.33
2022-11-22T21:21:06.407Z,6.32
2022-11-22T21:24:10.461Z,6.30
2022-11-22T21:27:11.924Z,6.33
2022-11-22T21:30:13.743Z,6.33
2022-11-22T21:33:15.132Z,6.35
2022-11-22T21:36:17.187Z,6.37
2022-11-22T21:39:18.642Z,6.39
2022-11-22T21:42:20.168Z,6.39
2022-11-22T21:45:21.675Z,6.40
2022-11-22T21:48:23.540Z,6.40
2022-11-22T21:51:24.977Z,6.44
2022-11-22T21:54:26.374Z,6.44
2022-11-22T21:57:27.839Z,6.46
2022-11-22T22:00:29.487Z,6.47
2022-11-22T22:03:31.240Z,6.48
2022-11-22T22:06:32.786Z,6.51
2022-11-22T22:09:34.247Z,6.56
2022-11-22T22:12:35.701Z,6.54
2022-11-22T22:15:37.998Z,6.57
2022-11-22T22:18:39.397Z,6.58
2022-11-22T22:21:40.823Z,6.64
2022-11-22T22:24:42.219Z,6.64
2022-11-22T22:27:43.728Z,6.68
2022-11-22T22:30:45.186Z,6.72
2022-11-22T22:33:46.676Z,6.76
2022-11-22T22:36:48.187Z,6.75
2022-11-22T22:39:51.683Z,6.78
2022-11-22T22:42:53.407Z,6.85
2022-11-22T22:45:54.843Z,6.89
2022-11-22T22:48:56.310Z,6.90
2022-11-22T22:51:57.740Z,6.87
2022-11-22T22:54:59.157Z,6.86
2022-11-22T22:58:01.224Z,6.84
2022-11-22T23:01:20.718Z,6.84
2022-11-22T23:04:22.203Z,6.83
2022-11-22T23:07:23.704Z,6.81
2022-11-22T23:10:25.176Z,6.76
2022-11-22T23:13:26.594Z,6.78
2022-11-22T23:16:27.990Z,6.80
2022-11-22T23:19:29.655Z,6.81
2022-11-22T23:22:31.321Z,6.81
2022-11-22T23:25:32.770Z,6.78
2022-11-22T23:28:34.367Z,6.71
2022-11-22T23:31:35.892Z,6.56
2022-11-22T23:34:37.339Z,6.56
2022-11-22T23:37:38.807Z,6.57
2022-11-22T23:40:40.254Z,6.68
2022-11-22T23:43:43.111Z,6.67
2022-11-22T23:46:44.579Z,6.68
2022-11-22T23:49:46.038Z,6.58
2022-11-22T23:52:47.514Z,6.52
2022-11-22T23:55:49.176Z,6.50
2022-11-22T23:58:51.148Z,6.45
